createdAt,value
2018-09-27T00:04:01.387Z,4.9
2018-09-27T00:09:01.406Z,4.9
2018-09-27T00:14:01.375Z,4.9
2018-09-27T00:19:06.496Z,5.1
2018-09-27T00:24:06.382Z,5.0
2018-09-27T00:29:06.444Z,5.0
2018-09-27T00:34:06.384Z,5.2
2018-09-27T00:39:06.395Z,4.8
2018-09-27T00:44:01.415Z,4.7
2018-09-27T00:54:01.392Z,4.7
2018-09-27T00:59:06.381Z,4.6
2018-09-27T01:04:01.411Z,4.8
2018-09-27T01:14:01.413Z,4.8
2018-09-27T01:19:01.420Z,4.8
2018-09-27T01:24:06.381Z,4.5
2018-09-27T01:29:01.423Z,4.8
2018-09-27T01:34:06.379Z,4.9
2018-09-27T01:39:06.389Z,5.0
2018-09-27T01:44:01.428Z,5.2
2018-09-27T01:49:01.411Z,5.4
2018-09-27T01:54:01.420Z,5.3
2018-09-27T02:04:01.376Z,5.1
2018-09-27T02:09:01.413Z,4.8
2018-09-27T02:14:06.396Z,4.9
2018-09-27T02:19:01.425Z,4.9
2018-09-27T02:24:01.428Z,5.1
2018-09-27T02:29:01.421Z,5.3
2018-09-27T02:35:01.410Z,5.5
2018-09-27T02:40:06.374Z,5.7
2018-09-27T02:45:01.406Z,6.0
2018-09-27T02:50:06.384Z,5.8
2018-09-27T02:55:06.390Z,5.6
2018-09-27T03:00:06.388Z,5.5
2018-09-27T03:05:01.375Z,5.5
2018-09-27T03:10:01.376Z,5.4
2018-09-27T03:15:01.439Z,5.3
2018-09-27T03:20:01.377Z,5.1
2018-09-27T03:25:01.380Z,4.9
2018-09-27T03:30:01.385Z,4.7
2018-09-27T03:35:01.394Z,4.4
2018-09-27T03:40:01.592Z,4.1
2018-09-27T03:45:01.368Z,4.1
2018-09-27T03:50:01.500Z,4.1
2018-09-27T03:55:01.371Z,4.1
2018-09-27T04:00:01.374Z,3.7
2018-09-27T04:10:01.383Z,3.8
2018-09-27T04:15:01.387Z,3.7
2018-09-27T04:20:01.383Z,3.3
2018-09-27T04:25:01.383Z,3.4
2018-09-27T04:30:01.457Z,3.4
2018-09-27T04:35:01.382Z,3.4
2018-09-27T04:45:01.398Z,3.4
2018-09-27T04:50:01.391Z,3.6
2018-09-27T04:55:01.391Z,3.6
2018-09-27T05:00:01.733Z,3.4
2018-09-27T05:05:01.375Z,3.1
2018-09-27T05:15:01.411Z,2.7
2018-09-27T05:20:01.380Z,2.6
2018-09-27T05:25:01.396Z,2.6
2018-09-27T05:30:01.392Z,2.7
2018-09-27T05:35:01.382Z,2.5
2018-09-27T05:40:01.378Z,2.7
2018-09-27T05:45:01.376Z,2.8
2018-09-27T05:55:01.384Z,2.6
2018-09-27T06:00:01.380Z,2.6
2018-09-27T06:05:01.400Z,2.4
2018-09-27T06:10:01.462Z,2.4
2018-09-27T06:15:01.388Z,2.2
2018-09-27T06:25:01.445Z,2.2
2018-09-27T06:30:01.446Z,2.3
2018-09-27T06:35:01.746Z,2.1
2018-09-27T06:40:01.489Z,2.1
2018-09-27T06:45:01.394Z,2.2
2018-09-27T06:50:01.387Z,2.0
2018-09-27T06:55:01.937Z,2.1
2018-09-27T07:00:01.379Z,2.2
2018-09-27T07:05:01.672Z,2.4
2018-09-27T07:10:01.449Z,2.8
2018-09-27T07:15:01.514Z,3.1
2018-09-27T07:20:01.399Z,3.1
2018-09-27T07:30:01.407Z,3.4
2018-09-27T07:36:01.380Z,3.2
2018-09-27T07:41:01.382Z,3.2
2018-09-27T07:46:01.383Z,3.6
2018-09-27T07:51:01.413Z,4.2
2018-09-27T07:56:06.394Z,4.8
2018-09-27T08:01:06.425Z,5.4
2018-09-27T08:06:06.420Z,6.0
2018-09-27T08:12:02.026Z,6.2
2018-09-27T08:17:02.091Z,6.4
2018-09-27T08:22:01.393Z,6.5
2018-09-27T08:27:01.386Z,6.9
2018-09-27T08:32:06.391Z,7.4
2018-09-27T08:37:01.413Z,7.8
2018-09-27T08:42:06.375Z,8.1
2018-09-27T08:47:01.408Z,8.6
2018-09-27T08:52:06.376Z,8.6
2018-09-27T08:57:06.483Z,8.6
2018-09-27T09:02:06.378Z,9.2
2018-09-27T09:07:01.416Z,9.8
2018-09-27T09:12:01.676Z,9.9
2018-09-27T09:17:01.997Z,10.8
2018-09-27T09:22:01.384Z,11.6
2018-09-27T09:28:06.365Z,12.4
2018-09-27T09:33:06.373Z,13.1
2018-09-27T09:38:06.377Z,14.0
2018-09-27T09:48:01.461Z,13.5
2018-09-27T09:53:01.384Z,13.1
2018-09-27T09:58:01.397Z,13.0
2018-09-27T10:03:01.444Z,13.3
2018-09-27T10:08:01.376Z,14.6
2018-09-27T10:13:01.369Z,15.9
2018-09-27T10:18:01.378Z,16.9
2018-09-27T10:23:01.427Z,17.8
2018-09-27T10:28:01.449Z,18.2
2018-09-27T10:39:01.401Z,18.0
2018-09-27T10:44:06.383Z,18.2
2018-09-27T10:49:01.380Z,18.4
2018-09-27T10:54:01.395Z,18.5
2018-09-27T10:59:01.377Z,18.5
2018-09-27T11:09:01.449Z,17.5
2018-09-27T11:14:01.380Z,16.4
2018-09-27T11:19:01.386Z,15.1
2018-09-27T11:25:01.372Z,14.4
2018-09-27T11:30:01.387Z,14.0
2018-09-27T11:35:01.380Z,13.7
2018-09-27T11:40:01.576Z,14.2
2018-09-27T11:45:01.390Z,15.8
2018-09-27T11:50:01.995Z,17.2
2018-09-27T11:55:01.586Z,18.7
2018-09-27T12:01:01.378Z,20.3
2018-09-27T12:06:01.374Z,21.4
2018-09-27T12:11:01.696Z,22.0
2018-09-27T12:16:01.375Z,22.6
2018-09-27T12:21:01.700Z,22.8
2018-09-27T12:26:01.445Z,22.8
2018-09-27T12:36:01.508Z,22.2
2018-09-27T12:41:01.705Z,21.4
2018-09-27T12:46:02.069Z,20.1
2018-09-27T12:51:01.717Z,19.6
2018-09-27T12:56:01.984Z,19.0
2018-09-27T13:01:02.049Z,18.4
2018-09-27T13:06:01.431Z,17.9
2018-09-27T13:11:01.380Z,17.6
2018-09-27T13:16:01.771Z,17.3
2018-09-27T13:21:01.415Z,16.9
2018-09-27T13:31:02.709Z,17.6
2018-09-27T13:36:01.755Z,17.5
2018-09-27T13:41:01.387Z,17.1
2018-09-27T13:46:01.384Z,16.9
2018-09-27T13:51:07.111Z,17.0
2018-09-27T13:56:01.384Z,16.0
2018-09-27T14:01:01.670Z,16.5
2018-09-27T14:11:01.375Z,17.1
2018-09-27T14:21:01.374Z,17.0
2018-09-27T14:26:01.612Z,17.0
2018-09-27T14:31:01.981Z,17.1
2018-09-27T14:36:01.511Z,16.6
2018-09-27T14:41:01.793Z,16.6
2018-09-27T14:46:01.506Z,16.6
2018-09-27T14:51:06.455Z,16.0
2018-09-27T14:56:01.512Z,15.2
2018-09-27T15:01:01.566Z,14.8
2018-09-27T15:06:01.561Z,14.4
2018-09-27T15:11:01.635Z,13.6
2018-09-27T15:16:01.372Z,13.0
2018-09-27T15:21:01.768Z,12.0
2018-09-27T15:26:01.446Z,11.6
2018-09-27T15:31:01.497Z,11.0
2018-09-27T15:36:01.457Z,10.4
2018-09-27T15:41:01.400Z,9.8
2018-09-27T15:47:01.403Z,9.8
2018-09-27T15:52:01.380Z,9.4
2018-09-27T15:57:01.392Z,8.6
2018-09-27T16:02:01.398Z,7.8
2018-09-27T16:07:02.425Z,7.6
2018-09-27T16:12:01.390Z,6.9
2018-09-27T16:17:06.399Z,6.7
2018-09-27T16:22:01.743Z,7.4
2018-09-27T16:27:01.374Z,7.9
2018-09-27T16:32:01.376Z,8.2
2018-09-27T16:37:01.380Z,8.9
2018-09-27T16:42:01.374Z,9.4
2018-09-27T16:47:01.382Z,9.1
2018-09-27T16:52:01.399Z,9.6
2018-09-27T16:57:01.385Z,9.8
2018-09-27T17:02:01.388Z,9.8
2018-09-27T17:07:01.385Z,9.6
2018-09-27T17:12:01.372Z,9.8
2018-09-27T17:17:01.374Z,9.8
2018-09-27T17:22:01.372Z,9.9
2018-09-27T17:27:01.379Z,9.9
2018-09-27T17:32:01.384Z,10.4
2018-09-27T17:37:01.378Z,10.6
2018-09-27T17:42:01.386Z,10.6
2018-09-27T17:47:06.390Z,10.4
2018-09-27T17:52:06.455Z,10.5
2018-09-27T17:57:01.375Z,9.8
2018-09-27T18:02:01.437Z,9.5
2018-09-27T18:07:07.402Z,9.0
2018-09-27T18:12:06.509Z,8.6
2018-09-27T18:17:06.713Z,8.3
2018-09-27T18:22:01.413Z,8.5
2018-09-27T18:27:06.386Z,8.6
2018-09-27T18:32:02.442Z,8.7
2018-09-27T18:37:01.402Z,8.9
2018-09-27T18:42:01.403Z,8.9
2018-09-27T18:47:06.380Z,8.9
2018-09-27T18:52:06.451Z,9.5
2018-09-27T18:57:06.455Z,10.6
2018-09-27T19:02:06.839Z,11.5
2018-09-27T19:07:06.408Z,12.6
2018-09-27T19:12:01.552Z,13.0
2018-09-27T19:17:07.114Z,13.1
2018-09-27T19:22:01.423Z,13.2
2018-09-27T19:27:01.617Z,12.5
2018-09-27T19:32:01.413Z,12.7
2018-09-27T19:37:01.420Z,13.3
2018-09-27T19:42:01.434Z,13.8
2018-09-27T19:47:01.445Z,14.3
2018-09-27T19:52:01.815Z,15.4
2018-09-27T20:02:01.571Z,16.3
2018-09-27T20:12:01.575Z,15.4
2018-09-27T20:17:02.803Z,14.0
2018-09-27T20:22:01.724Z,12.1
2018-09-27T20:27:01.438Z,9.9
2018-09-27T20:32:01.566Z,8.6
2018-09-27T20:37:01.435Z,6.8
2018-09-27T20:42:01.379Z,6.0
2018-09-27T20:47:01.382Z,5.9
2018-09-27T20:52:01.457Z,5.9
2018-09-27T20:57:01.377Z,5.7
2018-09-27T21:02:01.485Z,5.6
2018-09-27T21:07:01.380Z,5.7
2018-09-27T21:12:01.383Z,5.6
2018-09-27T21:17:02.424Z,5.6
2018-09-27T21:22:03.408Z,5.3
2018-09-27T21:27:01.398Z,5.3
2018-09-27T21:32:01.437Z,5.0
2018-09-27T21:37:01.375Z,4.8
2018-09-27T21:42:01.700Z,4.4
2018-09-27T21:52:01.779Z,4.2
2018-09-27T21:57:01.875Z,4.2
2018-09-27T22:02:01.393Z,4.0
2018-09-27T22:08:01.382Z,3.6
2018-09-27T22:13:01.475Z,3.0
2018-09-27T22:18:01.388Z,2.0
2018-09-27T22:23:01.390Z,1.1
2018-09-27T22:28:01.525Z,0.4
2018-09-27T22:33:01.635Z,0.0
2018-09-27T22:43:01.386Z,0.0
2018-09-27T22:48:01.388Z,0.0
2018-09-27T22:53:01.552Z,0.0
2018-09-27T22:58:02.338Z,0.0
2018-09-27T23:08:01.378Z,0.2
2018-09-27T23:13:01.381Z,0.2
2018-09-27T23:23:01.468Z,0.2
2018-09-27T23:28:01.422Z,0.2
2018-09-27T23:33:01.403Z,0.2
2018-09-27T23:43:01.378Z,0.3
2018-09-27T23:48:01.366Z,0.3
2018-09-27T23:53:06.563Z,0.3
2018-09-27T23:58:01.378Z,0.1
